Time;durP1;ratioP1;P1;durP2;ratioP2;P2;SDS_P1;SDS_P2;PMS_P1;PMS_P2;Temp;Humidity;BMP_temperature;BMP_pressure;BME280_temperature;BME280_humidity;BME280_pressure;Samples;Min_cycle;Max_cycle;Signal;HPM_P1;HPM_P2
2021/08/30 00:00:50;;;;;;;;;;;;;;;23.52;29.83;97228.31;5000987;28;878;-78
2021/08/30 00:03:15;;;;;;;;;;;;;;;23.47;29.85;97228.97;5000255;28;882;-78
2021/08/30 00:05:41;;;;;;;;;;;;;;;23.45;29.82;97228.66;5001160;28;695;-78
2021/08/30 00:08:06;;;;;;;;;;;;;;;23.50;29.63;97236.53;5001121;28;697;-78
2021/08/30 00:10:32;;;;;;;;;;;;;;;23.25;29.94;97232.78;5001285;28;717;-78
2021/08/30 00:12:57;;;;;;;;;;;;;;;23.20;29.98;97230.56;4999880;28;1918;-78
2021/08/30 00:15:23;;;;;;;;;;;;;;;23.18;29.95;97198.25;5001051;28;886;-78
2021/08/30 00:17:50;;;;;;;;;;;;;;;23.58;29.29;97198.03;5001351;28;988;-78
2021/08/30 00:20:17;;;;;;;;;;;;;;;23.62;29.47;97192.94;5001508;28;678;-78
2021/08/30 00:22:42;;;;;;;;;;;;;;;23.55;29.65;97194.06;5001379;28;698;-77
2021/08/30 00:25:08;;;;;;;;;;;;;;;23.45;29.95;97183.22;5000503;28;670;-77
2021/08/30 00:27:33;;;;;;;;;;;;;;;23.36;30.15;97176.31;5001298;28;881;-78
2021/08/30 00:29:59;;;;;;;;;;;;;;;23.53;29.79;97193.00;5000592;28;1134;-78
2021/08/30 00:32:24;;;;;;;;;;;;;;;23.44;29.95;97181.66;5001253;28;1907;-78
2021/08/30 00:34:50;;;;;;;;;;;;;;;23.47;29.89;97175.81;5000900;28;644;-78
2021/08/30 00:37:15;;;;;;;;;;;;;;;23.47;29.97;97180.72;5001307;28;673;-78
2021/08/30 00:39:40;;;;;;;;;;;;;;;23.48;29.98;97176.59;5001056;28;650;-78
2021/08/30 00:42:07;;;;;;;;;;;;;;;23.37;29.94;97169.38;5001042;28;872;-78
2021/08/30 00:44:32;;;;;;;;;;;;;;;23.37;29.85;97177.88;4999922;28;914;-79
2021/08/30 00:46:58;;;;;;;;;;;;;;;23.27;30.16;97173.50;5001248;28;941;-79
2021/08/30 00:49:23;;;;;;;;;;;;;;;23.28;30.19;97168.59;5000809;28;730;-78
2021/08/30 00:51:52;;;;;;;;;;;;;;;23.54;29.93;97161.25;5001380;28;1983;-78
2021/08/30 00:54:18;;;;;;;;;;;;;;;23.58;29.75;97152.59;5001313;28;674;-79
2021/08/30 00:56:44;;;;;;;;;;;;;;;23.53;30.02;97153.22;5000142;28;1116;-79
2021/08/30 00:59:09;;;;;;;;;;;;;;;23.54;30.03;97151.97;5000497;28;888;-78
2021/08/30 01:01:36;;;;;;;;;;;;;;;23.43;30.19;97163.84;5000355;28;933;-78
2021/08/30 01:04:01;;;;;;;;;;;;;;;23.51;30.12;97169.94;5002784;28;670;-78
2021/08/30 01:06:43;;;;;;;;;;;;;;;23.41;29.98;97160.66;5003840;28;672;-78
2021/08/30 01:09:33;;;;;;;;;;;;;;;23.54;29.92;97169.00;5004246;28;732;-78
2021/08/30 01:11:58;;;;;;;;;;;;;;;23.49;29.98;97175.31;4996295;28;1898;-78
2021/08/30 01:14:23;;;;;;;;;;;;;;;23.38;30.22;97179.47;5003896;28;987;-78
2021/08/30 01:16:49;;;;;;;;;;;;;;;23.42;29.92;97184.19;5004604;28;691;-78
2021/08/30 01:19:42;;;;;;;;;;;;;;;23.68;29.46;97193.91;5003274;28;655;-79
2021/08/30 01:22:07;;;;;;;;;;;;;;;23.42;30.04;97184.19;5004426;28;646;-78
2021/08/30 01:24:33;;;;;;;;;;;;;;;23.34;30.25;97184.50;5003793;28;718;-78
2021/08/30 01:26:58;;;;;;;;;;;;;;;23.49;29.68;97183.84;5003845;28;636;-78
2021/08/30 01:29:42;;;;;;;;;;;;;;;23.34;29.83;97183.72;5002214;28;1122;-78
2021/08/30 01:32:28;;;;;;;;;;;;;;;23.39;30.06;97175.34;5003742;28;1981;-77
2021/08/30 01:34:53;;;;;;;;;;;;;;;23.32;30.07;97192.72;5003008;28;1013;-78
2021/08/30 01:37:19;;;;;;;;;;;;;;;23.36;29.87;97186.84;5003338;28;818;-78
2021/08/30 01:39:44;;;;;;;;;;;;;;;23.64;29.69;97190.47;5003797;28;690;-79
2021/08/30 01:42:10;;;;;;;;;;;;;;;23.32;30.21;97187.03;5002861;28;967;-79
2021/08/30 01:44:35;;;;;;;;;;;;;;;23.57;29.71;97185.06;5002210;28;940;-78
2021/08/30 01:47:01;;;;;;;;;;;;;;;23.36;29.88;97179.16;5002665;28;950;-78
2021/08/30 01:49:27;;;;;;;;;;;;;;;23.55;29.71;97182.72;5002403;28;1037;-78
2021/08/30 01:51:52;;;;;;;;;;;;;;;23.42;29.80;97181.34;5002681;28;2055;-78
2021/08/30 01:54:18;;;;;;;;;;;;;;;23.20;30.25;97188.00;5002283;28;781;-79
2021/08/30 01:56:47;;;;;;;;;;;;;;;23.47;29.87;97192.84;5002872;28;900;-79
2021/08/30 02:01:58;;;;;;;;;;;;;;;23.30;30.18;97200.91;5003554;28;998;-78
2021/08/30 02:04:23;;;;;;;;;;;;;;;23.38;30.04;97196.50;5003133;28;634;-79
2021/08/30 02:06:49;;;;;;;;;;;;;;;23.44;29.91;97210.81;5003474;28;694;-78
2021/08/30 02:09:15;;;;;;;;;;;;;;;23.39;29.97;97198.06;5003062;28;799;-78
2021/08/30 02:11:41;;;;;;;;;;;;;;;23.36;30.08;97190.50;5002744;28;1902;-78
2021/08/30 02:14:07;;;;;;;;;;;;;;;23.38;29.88;97182.28;5002580;28;936;-78
2021/08/30 02:16:34;;;;;;;;;;;;;;;23.34;30.16;97178.81;5002554;28;907;-78
2021/08/30 02:18:59;;;;;;;;;;;;;;;23.35;30.12;97180.41;5003185;28;980;-78
2021/08/30 02:21:41;;;;;;;;;;;;;;;23.33;30.03;97185.78;5003617;28;643;-78
2021/08/30 02:24:27;;;;;;;;;;;;;;;23.40;30.04;97196.78;5002934;28;695;-78
2021/08/30 02:26:58;;;;;;;;;;;;;;;23.34;30.06;97195.88;4992709;28;1306;-79
2021/08/30 02:29:24;;;;;;;;;;;;;;;23.50;30.06;97191.09;5001969;28;1185;-79
2021/08/30 02:31:51;;;;;;;;;;;;;;;23.41;30.16;97194.72;5002247;28;1902;-79
2021/08/30 02:34:17;;;;;;;;;;;;;;;23.37;30.08;97194.13;5002410;28;927;-78
2021/08/30 02:36:43;;;;;;;;;;;;;;;23.39;30.14;97195.22;5003054;28;631;-79
2021/08/30 02:39:09;;;;;;;;;;;;;;;23.38;29.89;97196.50;5002929;28;703;-78
2021/08/30 02:41:35;;;;;;;;;;;;;;;23.43;29.83;97199.97;5002510;28;686;-79
2021/08/30 02:44:00;;;;;;;;;;;;;;;23.45;29.92;97205.94;5002255;28;1015;-79
2021/08/30 02:46:26;;;;;;;;;;;;;;;23.40;29.74;97208.16;5001966;28;901;-78
2021/08/30 02:48:52;;;;;;;;;;;;;;;23.49;29.60;97218.69;5002202;28;1262;-79
2021/08/30 02:51:17;;;;;;;;;;;;;;;23.28;29.84;97226.16;5002616;28;1898;-78
2021/08/30 02:53:43;;;;;;;;;;;;;;;23.43;29.65;97236.88;5001289;28;829;-79
2021/08/30 02:56:08;;;;;;;;;;;;;;;23.39;29.60;97231.34;5001601;28;886;-78
2021/08/30 02:58:34;;;;;;;;;;;;;;;23.60;29.26;97240.91;5001786;28;807;-78
2021/08/30 03:01:00;;;;;;;;;;;;;;;23.44;29.23;97238.44;5001961;28;901;-78
2021/08/30 03:03:25;;;;;;;;;;;;;;;23.28;29.36;97243.19;5001341;28;742;-79
2021/08/30 03:05:51;;;;;;;;;;;;;;;23.02;29.89;97247.63;5002606;28;765;-78
2021/08/30 03:08:16;;;;;;;;;;;;;;;23.22;29.53;97247.16;5001398;28;619;-79
2021/08/30 03:10:43;;;;;;;;;;;;;;;23.11;29.57;97256.91;5002047;28;951;-78
2021/08/30 03:13:08;;;;;;;;;;;;;;;23.05;29.58;97241.78;5000542;28;1955;-78
2021/08/30 03:15:34;;;;;;;;;;;;;;;23.37;29.08;97231.81;5001212;28;796;-78
2021/08/30 03:18:01;;;;;;;;;;;;;;;23.38;29.24;97230.56;5001735;28;814;-78
2021/08/30 03:20:28;;;;;;;;;;;;;;;23.39;29.37;97243.47;5001239;28;798;-78
2021/08/30 03:22:54;;;;;;;;;;;;;;;23.19;29.58;97251.69;5001873;28;819;-78
2021/08/30 03:25:23;;;;;;;;;;;;;;;23.25;29.67;97261.16;5001041;28;891;-78
2021/08/30 03:27:48;;;;;;;;;;;;;;;23.16;29.83;97266.03;5000829;28;928;-79
2021/08/30 03:30:15;;;;;;;;;;;;;;;22.95;30.09;97271.44;5000530;28;1235;-79
2021/08/30 03:32:41;;;;;;;;;;;;;;;23.38;29.39;97263.84;5000748;28;1989;-78
2021/08/30 03:35:07;;;;;;;;;;;;;;;23.39;29.01;97277.53;5000735;28;955;-77
2021/08/30 03:37:32;;;;;;;;;;;;;;;23.41;29.28;97285.59;5001500;28;826;-78
2021/08/30 03:39:58;;;;;;;;;;;;;;;23.50;28.88;97287.63;5001175;28;826;-79
2021/08/30 03:42:24;;;;;;;;;;;;;;;23.36;29.17;97287.03;5001369;28;867;-78
2021/08/30 03:44:49;;;;;;;;;;;;;;;23.31;29.25;97293.34;5000307;28;1004;-78
2021/08/30 03:47:15;;;;;;;;;;;;;;;23.25;29.13;97288.75;5000680;28;874;-79
2021/08/30 03:49:40;;;;;;;;;;;;;;;23.43;28.78;97305.78;5000682;28;718;-78
2021/08/30 03:52:06;;;;;;;;;;;;;;;23.01;29.60;97302.78;5000649;28;1976;-78
2021/08/30 03:54:31;;;;;;;;;;;;;;;22.95;29.55;97304.66;5000276;28;771;-78
2021/08/30 03:56:57;;;;;;;;;;;;;;;23.33;28.76;97302.16;5000500;28;951;-79
2021/08/30 03:59:22;;;;;;;;;;;;;;;23.36;28.60;97301.22;5000016;28;914;-79
2021/08/30 04:01:49;;;;;;;;;;;;;;;23.25;28.88;97300.88;5001594;28;909;-78
2021/08/30 04:04:18;;;;;;;;;;;;;;;23.24;29.12;97299.31;5000170;28;933;-78
2021/08/30 04:06:43;;;;;;;;;;;;;;;23.24;29.12;97309.88;5000741;28;605;-78
2021/08/30 04:09:09;;;;;;;;;;;;;;;23.17;28.92;97319.50;5000430;28;452;-78
2021/08/30 04:11:35;;;;;;;;;;;;;;;23.21;29.16;97328.66;5000784;28;1973;-79
2021/08/30 04:14:00;;;;;;;;;;;;;;;23.43;28.41;97330.56;5000821;28;863;-78
2021/08/30 04:16:25;;;;;;;;;;;;;;;23.25;28.70;97339.84;5001190;28;743;-78
2021/08/30 04:18:51;;;;;;;;;;;;;;;23.22;28.67;97338.75;5001067;28;702;-78
2021/08/30 04:21:16;;;;;;;;;;;;;;;23.22;28.77;97335.91;5001260;28;737;-78
2021/08/30 04:23:42;;;;;;;;;;;;;;;23.31;28.65;97337.94;5000935;28;714;-78
2021/08/30 04:26:07;;;;;;;;;;;;;;;23.37;28.25;97325.50;5001039;28;1001;-78
2021/08/30 04:28:33;;;;;;;;;;;;;;;23.36;28.24;97323.13;5000285;28;1196;-78
2021/08/30 04:30:58;;;;;;;;;;;;;;;23.27;28.78;97326.78;5001094;28;796;-78
2021/08/30 04:33:24;;;;;;;;;;;;;;;22.86;29.31;97340.25;5000846;28;1899;-78
2021/08/30 04:35:49;;;;;;;;;;;;;;;23.15;28.90;97339.03;5001318;28;666;-78
2021/08/30 04:38:15;;;;;;;;;;;;;;;23.26;28.94;97347.09;5001610;28;643;-78
2021/08/30 04:40:40;;;;;;;;;;;;;;;23.45;28.30;97347.88;5004071;28;1024;-78
2021/08/30 04:43:09;;;;;;;;;;;;;;;23.42;28.79;97348.84;5004105;28;929;-78
2021/08/30 04:45:36;;;;;;;;;;;;;;;23.22;28.94;97346.47;5004060;28;797;-78
2021/08/30 04:48:01;;;;;;;;;;;;;;;23.29;29.00;97346.94;5003734;28;681;-78
2021/08/30 04:50:27;;;;;;;;;;;;;;;23.27;28.99;97349.47;5003861;28;928;-78
2021/08/30 04:52:52;;;;;;;;;;;;;;;23.38;28.88;97357.53;5004381;28;1902;-78
2021/08/30 04:55:17;;;;;;;;;;;;;;;23.22;29.06;97369.97;5004262;28;970;-78
2021/08/30 04:57:43;;;;;;;;;;;;;;;23.32;28.61;97367.94;5004183;28;911;-78
2021/08/30 05:00:09;;;;;;;;;;;;;;;23.39;28.47;97374.06;5004230;28;851;-78
2021/08/30 05:02:34;;;;;;;;;;;;;;;23.27;28.53;97377.88;5004662;28;762;-78
2021/08/30 05:05:00;;;;;;;;;;;;;;;23.05;28.55;97377.19;5003689;28;628;-78
2021/08/30 05:07:25;;;;;;;;;;;;;;;23.15;28.55;97381.63;5004584;28;635;-78
2021/08/30 05:09:51;;;;;;;;;;;;;;;23.22;28.35;97380.53;5003716;28;937;-78
2021/08/30 05:12:16;;;;;;;;;;;;;;;23.28;28.62;97390.00;5004079;28;1967;-78
2021/08/30 05:14:42;;;;;;;;;;;;;;;23.36;28.09;97392.06;5003246;28;1009;-78
2021/08/30 05:17:07;;;;;;;;;;;;;;;23.35;28.18;97384.78;5004372;28;680;-78
2021/08/30 05:19:32;;;;;;;;;;;;;;;23.16;28.57;97394.56;5003937;28;691;-78
2021/08/30 05:21:58;;;;;;;;;;;;;;;23.25;28.34;97397.41;5004040;28;711;-78
2021/08/30 05:24:23;;;;;;;;;;;;;;;23.29;28.37;97403.72;5003386;28;945;-78
2021/08/30 05:26:49;;;;;;;;;;;;;;;23.26;28.51;97401.84;5003760;28;882;-78
2021/08/30 05:29:15;;;;;;;;;;;;;;;23.26;28.52;97404.66;5003256;28;1119;-78
2021/08/30 05:31:40;;;;;;;;;;;;;;;23.25;28.47;97405.91;5003711;28;1963;-78
2021/08/30 05:34:06;;;;;;;;;;;;;;;23.11;28.60;97403.69;5003674;28;770;-78
2021/08/30 05:36:37;;;;;;;;;;;;;;;23.36;28.31;97397.75;5003975;28;778;-78
2021/08/30 05:39:03;;;;;;;;;;;;;;;23.34;28.53;97388.91;5003340;28;1096;-78
2021/08/30 05:41:29;;;;;;;;;;;;;;;23.30;28.63;97382.56;5003648;28;960;-78
2021/08/30 05:43:54;;;;;;;;;;;;;;;23.16;29.07;97394.56;5002683;28;893;-79
2021/08/30 05:46:20;;;;;;;;;;;;;;;23.24;29.06;97395.03;5002628;28;921;-78
2021/08/30 05:48:45;;;;;;;;;;;;;;;23.23;28.77;97394.25;5003047;28;603;-78
2021/08/30 05:51:11;;;;;;;;;;;;;;;23.40;28.53;97395.53;5002888;28;1906;-78
2021/08/30 05:53:36;;;;;;;;;;;;;;;23.19;29.12;97392.81;5003036;28;846;-77
2021/08/30 05:56:11;;;;;;;;;;;;;;;23.34;28.95;97394.56;5003166;28;905;-78
2021/08/30 05:58:37;;;;;;;;;;;;;;;23.32;28.68;97390.66;5003143;28;670;-78
2021/08/30 06:01:03;;;;;;;;;;;;;;;23.23;29.45;97385.72;5001852;28;932;-78
2021/08/30 06:03:28;;;;;;;;;;;;;;;23.24;29.00;97390.16;5002081;28;846;-78
2021/08/30 06:05:54;;;;;;;;;;;;;;;23.25;29.24;97391.72;5002526;28;913;-78
2021/08/30 06:08:19;;;;;;;;;;;;;;;22.80;29.82;97401.69;5002574;28;907;-78
2021/08/30 06:10:45;;;;;;;;;;;;;;;23.23;28.93;97399.94;5002986;28;885;-78
2021/08/30 06:13:10;;;;;;;;;;;;;;;22.94;29.71;97406.00;5002747;28;1969;-78
2021/08/30 06:15:36;;;;;;;;;;;;;;;22.94;29.54;97397.50;5003094;28;654;-78
2021/08/30 06:18:01;;;;;;;;;;;;;;;23.13;29.38;97409.69;5002713;28;699;-78
2021/08/30 06:20:27;;;;;;;;;;;;;;;23.16;29.34;97411.59;5002355;28;1432;-78
2021/08/30 06:22:52;;;;;;;;;;;;;;;22.93;29.66;97429.16;5002335;28;954;-78
2021/08/30 06:25:21;;;;;;;;;;;;;;;23.22;29.28;97414.59;5001657;28;917;-78
2021/08/30 06:27:46;;;;;;;;;;;;;;;23.23;29.13;97411.28;5002851;28;1029;-78
2021/08/30 06:30:12;;;;;;;;;;;;;;;23.26;29.34;97416.03;5002528;28;1138;-78
2021/08/30 06:32:37;;;;;;;;;;;;;;;23.40;29.37;97403.25;5002027;28;1906;-78
2021/08/30 06:35:03;;;;;;;;;;;;;;;23.27;29.47;97406.25;5001855;28;643;-78
2021/08/30 06:37:29;;;;;;;;;;;;;;;23.10;29.53;97407.78;5002398;28;967;-78
2021/08/30 06:39:54;;;;;;;;;;;;;;;23.21;29.65;97419.50;5001871;28;859;-78
2021/08/30 06:42:20;;;;;;;;;;;;;;;23.29;29.41;97409.38;5002317;28;817;-78
2021/08/30 06:44:45;;;;;;;;;;;;;;;23.40;29.35;97408.94;5002453;28;722;-78
2021/08/30 06:47:11;;;;;;;;;;;;;;;22.84;29.99;97408.00;5002487;28;667;-78
2021/08/30 06:49:36;;;;;;;;;;;;;;;23.11;29.91;97415.06;5002035;28;619;-78
2021/08/30 06:52:02;;;;;;;;;;;;;;;23.26;29.50;97427.38;5000936;28;1902;-78
2021/08/30 06:54:27;;;;;;;;;;;;;;;23.32;29.41;97425.50;5001057;28;910;-78
2021/08/30 06:56:53;;;;;;;;;;;;;;;23.22;29.45;97425.94;5002408;28;941;-78
2021/08/30 06:59:18;;;;;;;;;;;;;;;23.24;29.41;97417.75;5002254;28;670;-78
2021/08/30 07:01:44;;;;;;;;;;;;;;;23.43;29.11;97424.25;5001679;28;1152;-78
2021/08/30 07:04:10;;;;;;;;;;;;;;;23.06;29.45;97427.03;5001465;28;743;-78
2021/08/30 07:06:35;;;;;;;;;;;;;;;23.17;29.48;97430.19;5002153;28;851;-78
2021/08/30 07:09:02;;;;;;;;;;;;;;;23.35;29.45;97430.22;5001369;28;918;-78
2021/08/30 07:11:28;;;;;;;;;;;;;;;23.29;29.10;97431.31;5002089;28;1977;-78
2021/08/30 07:13:54;;;;;;;;;;;;;;;23.19;29.61;97438.22;5001747;28;643;-78
2021/08/30 07:16:19;;;;;;;;;;;;;;;23.21;29.28;97435.69;5002530;28;659;-78
2021/08/30 07:18:45;;;;;;;;;;;;;;;23.15;29.47;97435.53;5001654;28;722;-78
2021/08/30 07:21:10;;;;;;;;;;;;;;;23.18;29.34;97437.44;5000393;28;966;-78
2021/08/30 07:23:37;;;;;;;;;;;;;;;23.11;29.75;97435.69;5000079;28;884;-78
2021/08/30 07:26:03;;;;;;;;;;;;;;;23.09;29.53;97428.91;5002017;28;896;-78
2021/08/30 07:28:28;;;;;;;;;;;;;;;23.34;29.46;97440.00;5001273;28;895;-78
2021/08/30 07:30:54;;;;;;;;;;;;;;;23.48;28.88;97443.50;5002044;28;659;-78
2021/08/30 07:33:19;;;;;;;;;;;;;;;23.43;28.98;97441.28;5001249;28;1938;-78
2021/08/30 07:35:51;;;;;;;;;;;;;;;23.08;29.42;97447.97;5001630;28;1064;-78
2021/08/30 07:38:16;;;;;;;;;;;;;;;22.99;29.75;97436.59;5001050;28;962;-78
2021/08/30 07:40:42;;;;;;;;;;;;;;;23.30;29.27;97445.03;5001058;28;1117;-78
2021/08/30 07:43:07;;;;;;;;;;;;;;;23.38;29.44;97440.63;5001693;28;756;-78
2021/08/30 07:45:32;;;;;;;;;;;;;;;23.37;29.40;97438.28;5001622;28;631;-78
2021/08/30 07:47:58;;;;;;;;;;;;;;;23.34;29.46;97440.00;5001284;28;683;-78
2021/08/30 07:50:23;;;;;;;;;;;;;;;23.33;29.22;97438.41;5001332;28;1087;-78
2021/08/30 07:52:49;;;;;;;;;;;;;;;23.35;29.49;97435.09;5001080;28;1977;-78
2021/08/30 07:55:15;;;;;;;;;;;;;;;23.32;29.47;97436.06;5001268;28;862;-78
2021/08/30 07:57:40;;;;;;;;;;;;;;;23.11;29.92;97434.91;5000453;28;854;-78
2021/08/30 08:00:06;;;;;;;;;;;;;;;23.22;29.79;97443.75;5001250;28;678;-78
2021/08/30 08:02:37;;;;;;;;;;;;;;;23.60;29.12;97439.72;5001614;28;695;-78
2021/08/30 08:05:02;;;;;;;;;;;;;;;23.32;29.74;97448.19;5000896;28;977;-78
2021/08/30 08:07:28;;;;;;;;;;;;;;;23.33;29.80;97451.84;5001214;28;822;-78
2021/08/30 08:09:53;;;;;;;;;;;;;;;23.39;29.52;97453.56;5000082;28;931;-78
2021/08/30 08:12:19;;;;;;;;;;;;;;;23.29;29.59;97443.44;5002414;28;1910;-78
2021/08/30 08:14:44;;;;;;;;;;;;;;;23.30;29.72;97445.03;5004936;28;603;-78
2021/08/30 08:17:10;;;;;;;;;;;;;;;23.27;29.80;97445.97;5005511;28;702;-78
2021/08/30 08:19:35;;;;;;;;;;;;;;;23.37;29.74;97447.59;5003857;28;881;-78
2021/08/30 08:22:02;;;;;;;;;;;;;;;23.39;29.59;97456.41;5004424;28;990;-78
2021/08/30 08:24:28;;;;;;;;;;;;;;;23.27;29.69;97463.00;5004128;28;841;-78
2021/08/30 08:26:54;;;;;;;;;;;;;;;23.33;29.73;97461.13;5005287;28;714;-78
2021/08/30 08:29:19;;;;;;;;;;;;;;;23.29;29.81;97463.31;5003720;28;1172;-78
2021/08/30 08:31:45;;;;;;;;;;;;;;;23.51;29.42;97465.25;5003837;28;1906;-78
2021/08/30 08:34:10;;;;;;;;;;;;;;;23.40;29.48;97457.97;5003800;28;993;-78
2021/08/30 08:36:39;;;;;;;;;;;;;;;23.34;29.62;97462.69;5004665;28;934;-78
2021/08/30 08:39:04;;;;;;;;;;;;;;;23.40;29.39;97460.81;5004550;28;883;-78
2021/08/30 08:41:30;;;;;;;;;;;;;;;23.36;29.54;97457.38;5004810;28;627;-78
2021/08/30 08:43:56;;;;;;;;;;;;;;;23.36;29.56;97456.53;5004086;28;623;-78
2021/08/30 08:46:21;;;;;;;;;;;;;;;23.30;29.64;97450.72;5004916;28;656;-78
2021/08/30 08:48:47;;;;;;;;;;;;;;;23.45;29.39;97452.94;4987647;28;949;-78
2021/08/30 08:51:15;;;;;;;;;;;;;;;23.57;29.26;97454.84;5003452;28;1927;-77
2021/08/30 08:53:40;;;;;;;;;;;;;;;23.52;29.51;97444.09;5004418;28;877;-78
2021/08/30 08:56:06;;;;;;;;;;;;;;;23.31;29.56;97440.94;5004263;28;643;-77
2021/08/30 08:58:32;;;;;;;;;;;;;;;23.54;29.59;97438.75;5003297;28;767;-77
2021/08/30 09:01:10;;;;;;;;;;;;;;;23.43;29.59;97446.97;5004768;28;647;-78
2021/08/30 09:03:35;;;;;;;;;;;;;;;23.56;29.26;97451.22;5003344;28;860;-78
2021/08/30 09:06:04;;;;;;;;;;;;;;;23.36;29.85;97448.84;5004200;28;993;-78
2021/08/30 09:08:31;;;;;;;;;;;;;;;23.43;29.81;97458.31;5002911;28;847;-78
2021/08/30 09:10:56;;;;;;;;;;;;;;;23.42;29.63;97456.75;5004333;28;628;-78
2021/08/30 09:13:25;;;;;;;;;;;;;;;23.48;29.37;97463.38;5004081;28;1906;-78
2021/08/30 09:15:51;;;;;;;;;;;;;;;23.37;29.75;97467.47;5003592;28;822;-78
2021/08/30 09:18:16;;;;;;;;;;;;;;;23.39;29.81;97464.94;5003599;28;914;-78
2021/08/30 09:20:42;;;;;;;;;;;;;;;23.29;29.71;97466.16;5003296;28;911;-78
2021/08/30 09:23:08;;;;;;;;;;;;;;;23.50;29.53;97481.50;5003321;28;981;-78
2021/08/30 09:25:34;;;;;;;;;;;;;;;23.62;29.50;97474.09;5002938;28;644;-78
2021/08/30 09:28:01;;;;;;;;;;;;;;;23.44;29.92;97471.25;5002818;28;1095;-78
2021/08/30 09:30:26;;;;;;;;;;;;;;;23.50;29.46;97469.34;5003852;28;626;-78
2021/08/30 09:32:52;;;;;;;;;;;;;;;23.46;29.92;97483.69;5002430;28;1991;-78
2021/08/30 09:35:19;;;;;;;;;;;;;;;23.51;29.62;97482.28;5002605;28;938;-78
2021/08/30 09:37:45;;;;;;;;;;;;;;;23.50;29.50;97492.06;5002861;28;1223;-78
2021/08/30 09:40:12;;;;;;;;;;;;;;;23.44;29.78;97483.38;5002911;28;623;-78
2021/08/30 09:42:41;;;;;;;;;;;;;;;23.48;29.61;97489.72;5003242;28;767;-78
2021/08/30 09:45:13;;;;;;;;;;;;;;;23.50;29.53;97486.41;5003697;28;659;-77
2021/08/30 09:47:49;;;;;;;;;;;;;;;23.52;29.33;97489.53;5003436;28;847;-78
2021/08/30 09:50:14;;;;;;;;;;;;;;;23.49;29.55;97484.81;5002277;28;904;-78
2021/08/30 09:52:40;;;;;;;;;;;;;;;23.35;29.46;97481.31;5003758;28;1898;-78
2021/08/30 09:55:05;;;;;;;;;;;;;;;23.45;29.53;97484.19;5003299;28;642;-78
2021/08/30 09:57:31;;;;;;;;;;;;;;;23.61;29.16;97483.88;5002430;28;772;-78
2021/08/30 09:59:56;;;;;;;;;;;;;;;23.69;28.95;97493.72;5002604;28;702;-78
2021/08/30 10:02:28;;;;;;;;;;;;;;;23.54;28.97;97492.72;5002910;28;907;-77
2021/08/30 10:04:53;;;;;;;;;;;;;;;23.52;29.23;97483.88;5002625;28;842;-79
2021/08/30 10:07:19;;;;;;;;;;;;;;;23.34;29.56;97496.78;5003133;28;981;-78
2021/08/30 10:09:45;;;;;;;;;;;;;;;23.27;29.79;97502.75;5002602;28;710;-79
2021/08/30 10:12:10;;;;;;;;;;;;;;;23.46;29.28;97514.16;5003102;28;1898;-79
2021/08/30 10:14:35;;;;;;;;;;;;;;;23.47;29.22;97505.19;5002057;28;1354;-79
2021/08/30 10:17:02;;;;;;;;;;;;;;;23.44;29.36;97503.25;5003542;28;650;-79
2021/08/30 10:19:34;;;;;;;;;;;;;;;23.45;29.22;97502.00;5002877;28;977;-79
2021/08/30 10:22:00;;;;;;;;;;;;;;;23.44;29.14;97511.78;5002404;28;900;-79
2021/08/30 10:24:28;;;;;;;;;;;;;;;23.29;29.66;97503.06;5002394;28;811;-79
2021/08/30 10:26:58;;;;;;;;;;;;;;;23.46;29.28;97505.63;5003497;28;777;-79
2021/08/30 10:29:30;;;;;;;;;;;;;;;23.47;29.43;97510.84;5002708;28;1128;-78
2021/08/30 10:32:19;;;;;;;;;;;;;;;23.42;29.25;97513.53;5003251;28;1960;-79
2021/08/30 10:34:45;;;;;;;;;;;;;;;23.44;29.39;97508.16;5002681;28;1027;-78
2021/08/30 10:37:17;;;;;;;;;;;;;;;23.46;29.28;97511.31;5000839;28;919;-79
2021/08/30 10:39:45;;;;;;;;;;;;;;;23.40;29.25;97511.91;5002150;28;817;-79
2021/08/30 10:42:19;;;;;;;;;;;;;;;23.41;28.97;97501.34;5002007;28;759;-79
2021/08/30 10:44:50;;;;;;;;;;;;;;;23.47;29.37;97507.22;5002696;28;729;-78
2021/08/30 10:47:16;;;;;;;;;;;;;;;23.43;29.11;97498.84;5002735;28;701;-79
2021/08/30 10:49:42;;;;;;;;;;;;;;;23.50;29.05;97503.44;5002325;28;903;-79
2021/08/30 10:52:12;;;;;;;;;;;;;;;23.49;29.22;97521.75;5002691;28;1926;-79
2021/08/30 10:54:50;;;;;;;;;;;;;;;23.44;29.07;97513.84;5001243;28;877;-79
2021/08/30 10:57:16;;;;;;;;;;;;;;;23.30;29.56;97507.47;5001696;28;960;-78
2021/08/30 10:59:43;;;;;;;;;;;;;;;23.51;29.17;97499.31;5002278;28;639;-79
2021/08/30 11:02:17;;;;;;;;;;;;;;;23.44;29.36;97499.63;5002537;28;639;-78
2021/08/30 11:04:43;;;;;;;;;;;;;;;23.31;29.60;97500.56;5001361;28;926;-79
2021/08/30 11:07:08;;;;;;;;;;;;;;;23.50;29.13;97509.13;5002246;28;818;-78
2021/08/30 11:09:34;;;;;;;;;;;;;;;23.50;29.29;97514.78;5001922;28;977;-79
2021/08/30 11:12:26;;;;;;;;;;;;;;;23.62;29.06;97511.03;5001788;28;1973;-78
2021/08/30 11:14:55;;;;;;;;;;;;;;;23.54;29.16;97507.72;4999318;28;1121;-78
2021/08/30 11:17:27;;;;;;;;;;;;;;;23.53;29.00;97513.88;5001265;28;786;-79
2021/08/30 11:19:54;;;;;;;;;;;;;;;23.43;29.21;97503.75;5000627;28;850;-79
2021/08/30 11:22:20;;;;;;;;;;;;;;;23.46;29.49;97497.09;5002151;28;851;-79
2021/08/30 11:24:45;;;;;;;;;;;;;;;23.43;29.57;97503.75;5001265;28;863;-79
2021/08/30 11:27:11;;;;;;;;;;;;;;;23.53;29.41;97513.88;5001694;28;699;-79
2021/08/30 11:29:43;;;;;;;;;;;;;;;23.43;29.50;97507.38;5001540;28;1208;-79
2021/08/30 11:32:09;;;;;;;;;;;;;;;23.43;29.48;97506.59;5002208;28;1973;-79
2021/08/30 11:34:37;;;;;;;;;;;;;;;23.56;29.25;97498.72;5001543;28;974;-79
2021/08/30 11:37:02;;;;;;;;;;;;;;;23.49;29.30;97496.19;5001340;28;803;-79
2021/08/30 11:39:28;;;;;;;;;;;;;;;23.49;29.18;97496.19;5001677;28;846;-79
2021/08/30 11:41:55;;;;;;;;;;;;;;;23.62;29.07;97493.97;5001307;28;682;-79
2021/08/30 11:44:21;;;;;;;;;;;;;;;23.54;29.36;97492.72;5000934;28;710;-79
2021/08/30 11:46:46;;;;;;;;;;;;;;;23.59;29.24;97494.94;5000818;28;846;-79
2021/08/30 11:49:12;;;;;;;;;;;;;;;22.83;30.21;97490.72;5001476;28;969;-79
2021/08/30 11:51:41;;;;;;;;;;;;;;;23.56;29.15;97493.03;5001500;28;1969;-79
2021/08/30 11:54:10;;;;;;;;;;;;;;;23.46;29.32;97508.47;5000930;28;870;-79
2021/08/30 11:56:36;;;;;;;;;;;;;;;23.48;29.67;97506.75;5002199;28;607;-79
2021/08/30 11:59:01;;;;;;;;;;;;;;;23.46;29.46;97491.44;5001504;28;769;-79
2021/08/30 12:01:27;;;;;;;;;;;;;;;23.55;29.35;97488.63;5002060;28;615;-79
2021/08/30 12:03:52;;;;;;;;;;;;;;;23.54;29.48;97487.03;5000419;28;1335;-79
2021/08/30 12:06:18;;;;;;;;;;;;;;;23.59;29.11;97495.72;5001451;28;840;-78
2021/08/30 12:08:48;;;;;;;;;;;;;;;23.52;29.23;97496.03;5000221;28;834;-77
2021/08/30 12:11:13;;;;;;;;;;;;;;;23.38;29.53;97479.59;5000753;28;943;-78
2021/08/30 12:14:12;;;;;;;;;;;;;;;23.39;29.55;97493.31;5000581;28;1965;-79
2021/08/30 12:16:31;;;;;;;;;;;;;;;23.52;29.23;97490.34;4999625;28;1037;-79
2021/08/30 12:18:56;;;;;;;;;;;;;;;23.66;29.16;97486.13;5001003;28;945;-79
2021/08/30 12:21:31;;;;;;;;;;;;;;;23.49;29.16;97491.28;5001267;28;839;-78
2021/08/30 12:23:57;;;;;;;;;;;;;;;23.56;29.42;97484.50;5000226;28;866;-78
2021/08/30 12:26:22;;;;;;;;;;;;;;;23.50;29.46;97494.91;5000955;28;619;-79
2021/08/30 12:28:53;;;;;;;;;;;;;;;23.58;29.06;97487.69;5001055;28;1114;-78
2021/08/30 12:31:25;;;;;;;;;;;;;;;23.56;29.20;97490.19;5000108;28;1910;-78
2021/08/30 12:34:20;;;;;;;;;;;;;;;23.48;29.06;97478.34;5000889;28;962;-79
2021/08/30 12:36:47;;;;;;;;;;;;;;;23.61;29.18;97486.72;4988466;28;1256;-78
2021/08/30 12:39:13;;;;;;;;;;;;;;;23.54;29.46;97487.81;5001077;28;703;-79
2021/08/30 12:41:38;;;;;;;;;;;;;;;23.68;29.22;97492.16;5001603;28;631;-79
2021/08/30 12:44:04;;;;;;;;;;;;;;;23.58;29.11;97487.69;5001010;28;690;-79
2021/08/30 12:46:30;;;;;;;;;;;;;;;23.47;29.30;97478.84;5000497;28;794;-79
2021/08/30 12:48:58;;;;;;;;;;;;;;;23.42;29.51;97485.13;5000695;28;827;-79
2021/08/30 12:51:24;;;;;;;;;;;;;;;23.37;29.66;97478.03;5000492;28;1968;-79
2021/08/30 12:53:49;;;;;;;;;;;;;;;23.62;29.26;97488.28;4999869;28;929;-78
2021/08/30 12:56:15;;;;;;;;;;;;;;;23.50;29.16;97486.41;5001546;28;670;-78
2021/08/30 12:58:40;;;;;;;;;;;;;;;23.48;29.29;97488.94;5000811;28;652;-79
2021/08/30 13:01:06;;;;;;;;;;;;;;;23.38;29.46;97486.06;5003924;28;994;-78
2021/08/30 13:03:31;;;;;;;;;;;;;;;23.66;28.99;97488.97;5003294;28;1344;-79
2021/08/30 13:05:57;;;;;;;;;;;;;;;23.55;29.32;97491.44;5004707;28;837;-78